createdAt,value
2018-09-27T00:01:52.545Z,2.1
2018-09-27T00:05:53.336Z,1.81
2018-09-27T00:07:54.318Z,2.29
2018-09-27T00:11:55.125Z,2.14
2018-09-27T00:17:56.025Z,2.26
2018-09-27T00:21:57.043Z,1.82
2018-09-27T00:27:58.216Z,2.02
2018-09-27T00:31:59.058Z,1.88
2018-09-27T00:33:59.735Z,2
2018-09-27T00:38:00.509Z,1.89
2018-09-27T00:44:01.426Z,2.46
2018-09-27T00:48:02.411Z,2.08
2018-09-27T00:54:03.184Z,2.2
2018-09-27T00:58:03.974Z,2.19
2018-09-27T01:00:04.683Z,2.48
2018-09-27T01:04:05.488Z,2.23
2018-09-27T01:10:06.269Z,2.32
2018-09-27T01:14:07.168Z,1.97
2018-09-27T01:20:08.060Z,2.51
2018-09-27T01:24:08.775Z,2.04
2018-09-27T01:26:09.594Z,2.36
2018-09-27T01:30:10.680Z,2.03
2018-09-27T01:36:11.495Z,2.15
2018-09-27T01:40:12.325Z,2.18
2018-09-27T01:46:13.368Z,2.18
2018-09-27T01:50:14.649Z,1.86
2018-09-27T01:52:15.254Z,1.76
2018-09-27T01:56:15.998Z,1.76
2018-09-27T02:02:16.850Z,2.26
2018-09-27T02:06:17.646Z,1.79
2018-09-27T02:12:18.435Z,2.34
2018-09-27T02:16:19.268Z,1.92
2018-09-27T02:18:19.969Z,2.26
2018-09-27T02:22:20.695Z,1.99
2018-09-27T02:28:21.606Z,2.42
2018-09-27T02:32:22.364Z,1.82
2018-09-27T02:38:23.165Z,2.24
2018-09-27T02:42:23.902Z,1.88
2018-09-27T02:44:24.811Z,2.05
2018-09-27T02:48:25.483Z,2.14
2018-09-27T02:54:26.312Z,2.16
2018-09-27T02:58:27.066Z,1.72
2018-09-27T03:04:27.964Z,2.11
2018-09-27T03:08:28.757Z,1.98
2018-09-27T03:10:29.434Z,2.03
2018-09-27T03:14:30.231Z,2.02
2018-09-27T03:20:31.008Z,2.37
2018-09-27T03:24:31.755Z,2.06
2018-09-27T03:30:32.451Z,2.17
2018-09-27T03:34:33.216Z,1.69
2018-09-27T03:36:33.964Z,2.5
2018-09-27T03:40:34.696Z,2.13
2018-09-27T03:46:35.461Z,2.64
2018-09-27T03:50:36.275Z,2.24
2018-09-27T03:56:38.420Z,2.33
2018-09-27T04:00:39.237Z,2.15
2018-09-27T04:06:40.100Z,2.49
2018-09-27T04:12:40.967Z,2.48
2018-09-27T04:16:41.585Z,2.06
2018-09-27T04:22:42.502Z,2.83
2018-09-27T04:26:43.314Z,2.42
2018-09-27T04:28:44.016Z,3.06
2018-09-27T04:32:44.788Z,2.99
2018-09-27T04:38:45.640Z,3.57
2018-09-27T04:42:46.369Z,2.98
2018-09-27T04:48:47.179Z,3.19
2018-09-27T04:52:48.381Z,2.93
2018-09-27T04:54:49.309Z,3.17
2018-09-27T04:58:50.063Z,2.89
2018-09-27T05:04:50.864Z,8.84
2018-09-27T05:08:51.780Z,5.03
2018-09-27T05:14:52.346Z,4.61
2018-09-27T05:18:53.144Z,3.93
2018-09-27T05:20:53.784Z,3.63
2018-09-27T05:24:54.684Z,2.88
2018-09-27T05:30:55.505Z,4.96
2018-09-27T05:34:56.234Z,4.9
2018-09-27T05:40:56.991Z,3.63
2018-09-27T05:44:58.308Z,3.62
2018-09-27T05:50:59.123Z,3.95
2018-09-27T05:57:00.076Z,3.87
2018-09-27T06:01:00.850Z,4.01
2018-09-27T06:07:01.679Z,4.12
2018-09-27T06:11:02.380Z,4.23
2018-09-27T06:13:03.127Z,3.28
2018-09-27T06:17:03.852Z,3.61
2018-09-27T06:23:04.608Z,4.43
2018-09-27T06:27:05.422Z,4.26
2018-09-27T06:33:06.193Z,5.55
2018-09-27T06:37:07.046Z,5.7
2018-09-27T06:39:07.832Z,6.31
2018-09-27T06:43:08.517Z,6.59
2018-09-27T06:49:09.430Z,6.55
2018-09-27T06:53:10.369Z,5.99
2018-09-27T06:59:11.193Z,6.24
2018-09-27T07:03:11.960Z,5.69
2018-09-27T07:05:12.608Z,7.51
2018-09-27T07:09:13.340Z,6.38
2018-09-27T07:15:14.380Z,5.44
2018-09-27T07:19:15.165Z,5.01
2018-09-27T07:25:16.059Z,5.35
2018-09-27T07:29:16.684Z,4.9
2018-09-27T07:31:17.346Z,5.42
2018-09-27T07:35:18.199Z,5.67
2018-09-27T07:41:18.948Z,6.04
2018-09-27T07:45:20.061Z,6.38
2018-09-27T07:51:21.522Z,4.56
2018-09-27T07:55:22.522Z,4.49
2018-09-27T07:57:23.264Z,4.78
2018-09-27T08:01:24.032Z,3.86
2018-09-27T08:07:25.139Z,4.39
2018-09-27T08:11:27.062Z,3.96
2018-09-27T08:17:27.804Z,4.35
2018-09-27T08:21:31.407Z,3.9
2018-09-27T08:27:32.164Z,3.14
2018-09-27T08:33:33.065Z,3.09
2018-09-27T08:37:33.863Z,3.04
2018-09-27T08:43:35.199Z,2.88
2018-09-27T08:47:37.047Z,2.82
2018-09-27T08:53:37.829Z,2.67
2018-09-27T08:59:38.726Z,2.99
2018-09-27T09:03:39.726Z,3.11
2018-09-27T09:09:40.497Z,2.97
2018-09-27T09:13:41.251Z,2.62
2018-09-27T09:19:42.150Z,2.57
2018-09-27T09:25:42.914Z,2.94
2018-09-27T09:29:43.637Z,2.46
2018-09-27T09:35:44.358Z,2.94
2018-09-27T09:39:45.343Z,3.04
2018-09-27T09:45:46.039Z,3.5
2018-09-27T09:51:46.887Z,3.32
2018-09-27T09:55:47.630Z,3.41
2018-09-27T10:01:48.573Z,3.24
2018-09-27T10:05:49.530Z,2.95
2018-09-27T10:07:50.397Z,2.73
2018-09-27T10:11:51.085Z,2.33
2018-09-27T10:17:51.866Z,2.35
2018-09-27T10:21:52.643Z,2.56
2018-09-27T10:27:54.165Z,3.06
2018-09-27T10:31:54.875Z,2.61
2018-09-27T10:33:55.696Z,2.71
2018-09-27T10:37:56.478Z,2.6
2018-09-27T10:43:57.220Z,2.6
2018-09-27T10:47:58.031Z,2.16
2018-09-27T10:53:58.785Z,2.81
2018-09-27T10:57:59.550Z,2.17
2018-09-27T11:00:00.252Z,2.81
2018-09-27T11:04:01.073Z,2.23
2018-09-27T11:10:01.811Z,3.04
2018-09-27T11:14:02.641Z,3.74
2018-09-27T11:20:03.456Z,2.93
2018-09-27T11:24:04.436Z,3.15
2018-09-27T11:26:05.152Z,2.45
2018-09-27T11:30:06.503Z,2.64
2018-09-27T11:36:07.258Z,2.75
2018-09-27T11:40:08.155Z,2.39
2018-09-27T11:46:08.900Z,2.86
2018-09-27T11:50:09.619Z,2.62
2018-09-27T11:52:10.389Z,2.74
2018-09-27T11:56:11.354Z,2.95
2018-09-27T12:02:12.055Z,2.92
2018-09-27T12:06:12.731Z,2.78
2018-09-27T12:12:13.496Z,3.72
2018-09-27T12:16:22.629Z,2.95
2018-09-27T12:22:26.253Z,2.96
2018-09-27T12:28:27.594Z,3.43
2018-09-27T12:32:28.943Z,2.79
2018-09-27T12:38:29.795Z,3.74
2018-09-27T12:42:30.810Z,3.8
2018-09-27T12:48:31.783Z,2.82
2018-09-27T12:54:32.418Z,2.74
2018-09-27T12:58:33.387Z,3.03
2018-09-27T13:04:34.071Z,3.24
2018-09-27T13:08:34.839Z,2.51
2018-09-27T13:14:35.589Z,3.35
2018-09-27T13:20:36.436Z,3.43
2018-09-27T13:24:37.308Z,2.81
2018-09-27T13:30:37.893Z,2.5
2018-09-27T13:34:38.645Z,2.65
2018-09-27T13:40:39.327Z,2.46
2018-09-27T13:46:40.070Z,1.63
2018-09-27T13:50:40.806Z,1.56
2018-09-27T13:56:41.552Z,1.71
2018-09-27T14:00:42.387Z,1.56
2018-09-27T14:02:43.036Z,1.87
2018-09-27T14:06:43.891Z,1.62
2018-09-27T14:12:50.159Z,1.03
2018-09-27T14:16:51.022Z,0.63
2018-09-27T14:22:51.659Z,0.56
2018-09-27T14:26:52.589Z,0.49
2018-09-27T14:32:53.858Z,0.57
2018-09-27T14:38:54.476Z,0.75
2018-09-27T14:42:55.199Z,0.53
2018-09-27T14:48:55.890Z,0.6
2018-09-27T14:52:58.862Z,0.56
2018-09-27T14:58:59.644Z,0.7
2018-09-27T15:05:01.292Z,1.01
2018-09-27T15:09:02.220Z,1.21
2018-09-27T15:15:03.145Z,1.13
2018-09-27T15:19:04.106Z,1.2
2018-09-27T15:25:04.881Z,1.17
2018-09-27T15:31:05.838Z,1.36
2018-09-27T15:35:07.016Z,1.1
2018-09-27T15:41:08.220Z,1.6
2018-09-27T15:45:13.645Z,1.31
2018-09-27T15:51:14.731Z,1.27
2018-09-27T15:57:15.543Z,1.36
2018-09-27T16:01:16.395Z,1.21
2018-09-27T16:07:17.200Z,1.17
2018-09-27T16:11:17.964Z,1.17
2018-09-27T16:17:18.646Z,1.29
2018-09-27T16:23:19.417Z,1.83
2018-09-27T16:27:20.277Z,1.62
2018-09-27T16:33:21.112Z,1.53
2018-09-27T16:37:21.917Z,1.32
2018-09-27T16:39:22.665Z,1.58
2018-09-27T16:43:23.554Z,1.64
2018-09-27T16:49:29.447Z,1.4
2018-09-27T16:53:30.622Z,1.25
2018-09-27T16:59:31.584Z,1.75
2018-09-27T17:03:32.357Z,1.51
2018-09-27T17:09:33.091Z,1.55
2018-09-27T17:15:34.046Z,2.12
2018-09-27T17:19:34.983Z,1.42
2018-09-27T17:25:35.769Z,1.78
2018-09-27T17:29:36.707Z,1.55
2018-09-27T17:35:37.546Z,1.58
2018-09-27T17:41:38.210Z,1.81
2018-09-27T17:45:39.237Z,1.69
2018-09-27T17:51:40.153Z,2.09
2018-09-27T17:55:41.101Z,1.91
2018-09-27T18:01:41.869Z,1.52
2018-09-27T18:07:42.824Z,1.58
2018-09-27T18:11:43.920Z,2.01
2018-09-27T18:17:44.562Z,1.7
2018-09-27T18:21:45.286Z,1.95
2018-09-27T18:23:45.980Z,1.99
2018-09-27T18:27:46.666Z,1.67
2018-09-27T18:33:47.580Z,1.84
2018-09-27T18:37:48.548Z,1.78
2018-09-27T18:43:49.447Z,1.98
2018-09-27T18:47:50.745Z,1.91
2018-09-27T18:49:51.904Z,2.17
2018-09-27T18:53:53.780Z,1.89
2018-09-27T18:59:55.111Z,1.95
2018-09-27T19:03:56.209Z,1.62
2018-09-27T19:09:57.072Z,2.2
2018-09-27T19:13:58.894Z,2.04
2018-09-27T19:19:59.809Z,1.8
2018-09-27T19:26:00.777Z,1.78
2018-09-27T19:30:03.075Z,1.74
2018-09-27T19:36:04.709Z,1.63
2018-09-27T19:40:06.253Z,1.51
2018-09-27T19:46:11.401Z,1.36
2018-09-27T19:52:12.485Z,1.55
2018-09-27T19:56:18.492Z,1.34
2018-09-27T20:02:19.753Z,1.92
2018-09-27T20:06:20.835Z,1.62
2018-09-27T20:12:21.781Z,1.7
2018-09-27T20:18:22.807Z,3.76
2018-09-27T20:22:28.356Z,3.21
2018-09-27T20:28:29.797Z,3.87
2018-09-27T20:32:30.588Z,3.32
2018-09-27T20:38:41.024Z,1.51
2018-09-27T20:42:42.541Z,1.23
2018-09-27T20:48:43.356Z,1.79
2018-09-27T20:54:44.296Z,1.64
2018-09-27T20:58:45.669Z,1.39
2018-09-27T21:04:46.851Z,1.62
2018-09-27T21:08:47.774Z,1.32
2018-09-27T21:14:48.587Z,1.52
2018-09-27T21:20:49.371Z,1.84
2018-09-27T21:24:50.358Z,1.65
2018-09-27T21:30:51.053Z,1.75
2018-09-27T21:34:52.010Z,1.68
2018-09-27T21:36:52.769Z,2.07
2018-09-27T21:40:53.579Z,2.01
2018-09-27T21:46:54.428Z,1.68
2018-09-27T21:50:55.285Z,1.54
2018-09-27T21:56:56.016Z,2.03
2018-09-27T22:00:56.952Z,1.75
2018-09-27T22:02:57.788Z,1.73
2018-09-27T22:06:58.795Z,1.8
2018-09-27T22:12:59.560Z,2.08
2018-09-27T22:17:00.667Z,2.03
2018-09-27T22:23:01.434Z,2.55
2018-09-27T22:27:02.259Z,2.29
2018-09-27T22:29:03.071Z,2.62
2018-09-27T22:33:03.907Z,2.64
2018-09-27T22:39:04.804Z,3.01
2018-09-27T22:43:05.534Z,2.64
2018-09-27T22:49:06.309Z,2.65
2018-09-27T22:53:07.144Z,2.43
2018-09-27T22:55:07.845Z,2.79
2018-09-27T22:59:08.683Z,2.22
2018-09-27T23:05:09.507Z,2.36
2018-09-27T23:09:10.388Z,2.47
2018-09-27T23:15:11.742Z,2.12
2018-09-27T23:19:12.698Z,1.9
2018-09-27T23:21:13.492Z,2.12
2018-09-27T23:25:14.290Z,1.86
2018-09-27T23:31:15.095Z,2.1
2018-09-27T23:35:15.949Z,1.85
2018-09-27T23:41:16.834Z,2.09
2018-09-27T23:45:18.102Z,1.98
2018-09-27T23:47:18.818Z,2.5
2018-09-27T23:51:19.693Z,2.23
2018-09-27T23:57:20.401Z,2.28
